sensor_id;sensor_type;location;lat;lon;timestamp;P1;durP1;ratioP1;P2;durP2;ratioP2
16642;SDS011;8435;52.184;5.406;2022-10-19T00:00:01;5.10;;;4.60;;
16642;SDS011;8435;52.184;5.406;2022-10-19T00:02:29;5.47;;;4.57;;
16642;SDS011;8435;52.184;5.406;2022-10-19T00:04:56;4.97;;;4.37;;
16642;SDS011;8435;52.184;5.406;2022-10-19T00:07:24;5.60;;;4.33;;
16642;SDS011;8435;52.184;5.406;2022-10-19T00:09:50;6.10;;;5.50;;
16642;SDS011;8435;52.184;5.406;2022-10-19T00:12:17;5.07;;;4.57;;
16642;SDS011;8435;52.184;5.406;2022-10-19T00:14:45;5.63;;;4.60;;
16642;SDS011;8435;52.184;5.406;2022-10-19T00:17:12;6.37;;;4.90;;
16642;SDS011;8435;52.184;5.406;2022-10-19T00:19:39;6.57;;;4.87;;
16642;SDS011;8435;52.184;5.406;2022-10-19T00:22:05;6.17;;;5.37;;
16642;SDS011;8435;52.184;5.406;2022-10-19T00:24:33;6.33;;;4.73;;
16642;SDS011;8435;52.184;5.406;2022-10-19T00:27:00;5.20;;;4.70;;
16642;SDS011;8435;52.184;5.406;2022-10-19T00:29:27;5.33;;;4.83;;
16642;SDS011;8435;52.184;5.406;2022-10-19T00:31:54;5.50;;;4.77;;
16642;SDS011;8435;52.184;5.406;2022-10-19T00:34:20;5.27;;;4.40;;
16642;SDS011;8435;52.184;5.406;2022-10-19T00:36:47;6.27;;;4.73;;
16642;SDS011;8435;52.184;5.406;2022-10-19T00:39:14;6.07;;;4.60;;
16642;SDS011;8435;52.184;5.406;2022-10-19T00:41:43;5.77;;;4.40;;
16642;SDS011;8435;52.184;5.406;2022-10-19T00:47:15;5.73;;;4.20;;
16642;SDS011;8435;52.184;5.406;2022-10-19T00:49:44;4.87;;;4.13;;
16642;SDS011;8435;52.184;5.406;2022-10-19T00:52:12;5.13;;;4.00;;
16642;SDS011;8435;52.184;5.406;2022-10-19T00:54:41;5.13;;;3.87;;
16642;SDS011;8435;52.184;5.406;2022-10-19T00:57:12;6.03;;;4.10;;
16642;SDS011;8435;52.184;5.406;2022-10-19T00:59:39;7.63;;;4.80;;
16642;SDS011;8435;52.184;5.406;2022-10-19T01:02:08;5.40;;;4.23;;
16642;SDS011;8435;52.184;5.406;2022-10-19T01:04:36;5.70;;;3.87;;
16642;SDS011;8435;52.184;5.406;2022-10-19T01:07:05;6.17;;;4.27;;
16642;SDS011;8435;52.184;5.406;2022-10-19T01:09:33;4.97;;;4.47;;
16642;SDS011;8435;52.184;5.406;2022-10-19T01:12:02;4.67;;;4.20;;
16642;SDS011;8435;52.184;5.406;2022-10-19T01:14:37;5.53;;;4.37;;
16642;SDS011;8435;52.184;5.406;2022-10-19T01:17:14;4.23;;;3.83;;
16642;SDS011;8435;52.184;5.406;2022-10-19T01:19:57;6.83;;;4.53;;
16642;SDS011;8435;52.184;5.406;2022-10-19T01:22:50;5.17;;;4.60;;
16642;SDS011;8435;52.184;5.406;2022-10-19T01:25:32;4.80;;;4.00;;
16642;SDS011;8435;52.184;5.406;2022-10-19T01:28:24;5.10;;;4.57;;
16642;SDS011;8435;52.184;5.406;2022-10-19T01:31:08;6.30;;;4.50;;
16642;SDS011;8435;52.184;5.406;2022-10-19T01:33:45;5.57;;;4.73;;
16642;SDS011;8435;52.184;5.406;2022-10-19T01:36:21;4.40;;;4.00;;
16642;SDS011;8435;52.184;5.406;2022-10-19T01:38:53;6.53;;;4.03;;
16642;SDS011;8435;52.184;5.406;2022-10-19T01:41:27;7.23;;;4.83;;
16642;SDS011;8435;52.184;5.406;2022-10-19T01:44:02;4.43;;;4.00;;
16642;SDS011;8435;52.184;5.406;2022-10-19T01:46:36;4.63;;;4.20;;
16642;SDS011;8435;52.184;5.406;2022-10-19T01:49:06;4.90;;;4.50;;
16642;SDS011;8435;52.184;5.406;2022-10-19T01:51:36;4.57;;;3.97;;
16642;SDS011;8435;52.184;5.406;2022-10-19T01:54:08;5.23;;;4.30;;
16642;SDS011;8435;52.184;5.406;2022-10-19T01:56:38;5.30;;;4.10;;
16642;SDS011;8435;52.184;5.406;2022-10-19T01:59:08;4.57;;;4.17;;
16642;SDS011;8435;52.184;5.406;2022-10-19T02:01:38;5.03;;;4.27;;
16642;SDS011;8435;52.184;5.406;2022-10-19T02:04:09;5.27;;;4.80;;
16642;SDS011;8435;52.184;5.406;2022-10-19T02:06:38;5.63;;;3.93;;
16642;SDS011;8435;52.184;5.406;2022-10-19T02:09:06;4.73;;;4.13;;
16642;SDS011;8435;52.184;5.406;2022-10-19T02:11:32;4.93;;;4.43;;
16642;SDS011;8435;52.184;5.406;2022-10-19T02:14:03;6.37;;;4.27;;
16642;SDS011;8435;52.184;5.406;2022-10-19T02:16:35;4.70;;;4.13;;
16642;SDS011;8435;52.184;5.406;2022-10-19T02:19:06;4.27;;;3.90;;
16642;SDS011;8435;52.184;5.406;2022-10-19T02:21:33;4.70;;;3.77;;
16642;SDS011;8435;52.184;5.406;2022-10-19T02:24:00;5.57;;;4.40;;
16642;SDS011;8435;52.184;5.406;2022-10-19T02:26:27;4.37;;;3.97;;
16642;SDS011;8435;52.184;5.406;2022-10-19T02:28:54;5.17;;;4.47;;
16642;SDS011;8435;52.184;5.406;2022-10-19T02:31:22;5.40;;;4.67;;
16642;SDS011;8435;52.184;5.406;2022-10-19T02:33:50;5.23;;;4.60;;
16642;SDS011;8435;52.184;5.406;2022-10-19T02:36:18;4.47;;;4.07;;
16642;SDS011;8435;52.184;5.406;2022-10-19T02:38:45;4.80;;;3.97;;
16642;SDS011;8435;52.184;5.406;2022-10-19T02:41:13;6.10;;;4.43;;
16642;SDS011;8435;52.184;5.406;2022-10-19T02:43:44;5.17;;;4.70;;
16642;SDS011;8435;52.184;5.406;2022-10-19T02:46:15;4.60;;;3.83;;
16642;SDS011;8435;52.184;5.406;2022-10-19T02:48:46;5.27;;;4.20;;
16642;SDS011;8435;52.184;5.406;2022-10-19T02:51:30;5.20;;;4.50;;
16642;SDS011;8435;52.184;5.406;2022-10-19T02:53:59;4.77;;;4.33;;
16642;SDS011;8435;52.184;5.406;2022-10-19T02:56:26;9.70;;;4.77;;
16642;SDS011;8435;52.184;5.406;2022-10-19T02:58:53;4.83;;;4.07;;
16642;SDS011;8435;52.184;5.406;2022-10-19T03:01:20;4.60;;;4.20;;
16642;SDS011;8435;52.184;5.406;2022-10-19T03:03:46;4.70;;;4.30;;
16642;SDS011;8435;52.184;5.406;2022-10-19T03:06:13;4.23;;;3.83;;
16642;SDS011;8435;52.184;5.406;2022-10-19T03:08:41;4.70;;;4.30;;
16642;SDS011;8435;52.184;5.406;2022-10-19T03:11:08;4.43;;;4.00;;
16642;SDS011;8435;52.184;5.406;2022-10-19T03:13:35;4.60;;;4.20;;
16642;SDS011;8435;52.184;5.406;2022-10-19T03:16:05;5.13;;;4.53;;
16642;SDS011;8435;52.184;5.406;2022-10-19T03:18:33;5.57;;;4.33;;
16642;SDS011;8435;52.184;5.406;2022-10-19T03:21:04;4.50;;;4.10;;
16642;SDS011;8435;52.184;5.406;2022-10-19T03:23:32;5.77;;;4.00;;
16642;SDS011;8435;52.184;5.406;2022-10-19T03:26:00;4.60;;;4.20;;
16642;SDS011;8435;52.184;5.406;2022-10-19T03:28:28;5.07;;;3.90;;
16642;SDS011;8435;52.184;5.406;2022-10-19T03:30:55;4.67;;;4.27;;
16642;SDS011;8435;52.184;5.406;2022-10-19T03:33:22;4.77;;;4.30;;
16642;SDS011;8435;52.184;5.406;2022-10-19T03:35:49;4.33;;;3.93;;
16642;SDS011;8435;52.184;5.406;2022-10-19T03:38:17;5.43;;;4.30;;
16642;SDS011;8435;52.184;5.406;2022-10-19T03:40:43;4.00;;;3.70;;
16642;SDS011;8435;52.184;5.406;2022-10-19T03:43:11;4.10;;;3.80;;
16642;SDS011;8435;52.184;5.406;2022-10-19T03:45:38;4.80;;;4.03;;
16642;SDS011;8435;52.184;5.406;2022-10-19T03:48:05;4.33;;;3.93;;
16642;SDS011;8435;52.184;5.406;2022-10-19T03:50:32;4.57;;;4.17;;
16642;SDS011;8435;52.184;5.406;2022-10-19T03:52:58;4.33;;;3.97;;
16642;SDS011;8435;52.184;5.406;2022-10-19T03:55:25;4.93;;;4.53;;
16642;SDS011;8435;52.184;5.406;2022-10-19T03:57:52;4.80;;;4.37;;
16642;SDS011;8435;52.184;5.406;2022-10-19T04:00:20;6.77;;;4.10;;
16642;SDS011;8435;52.184;5.406;2022-10-19T04:02:47;4.40;;;4.00;;
16642;SDS011;8435;52.184;5.406;2022-10-19T04:05:14;4.97;;;4.13;;
16642;SDS011;8435;52.184;5.406;2022-10-19T04:07:40;4.20;;;3.80;;
16642;SDS011;8435;52.184;5.406;2022-10-19T04:10:07;4.67;;;4.20;;
16642;SDS011;8435;52.184;5.406;2022-10-19T04:12:34;5.77;;;4.23;;
16642;SDS011;8435;52.184;5.406;2022-10-19T04:15:02;4.97;;;4.47;;
16642;SDS011;8435;52.184;5.406;2022-10-19T04:17:30;5.00;;;4.60;;
16642;SDS011;8435;52.184;5.406;2022-10-19T04:19:57;6.10;;;4.37;;
16642;SDS011;8435;52.184;5.406;2022-10-19T04:22:24;4.87;;;4.47;;
16642;SDS011;8435;52.184;5.406;2022-10-19T04:24:51;5.33;;;4.30;;
16642;SDS011;8435;52.184;5.406;2022-10-19T04:27:18;4.27;;;3.97;;
16642;SDS011;8435;52.184;5.406;2022-10-19T04:29:45;4.73;;;4.33;;
16642;SDS011;8435;52.184;5.406;2022-10-19T04:32:12;4.63;;;4.23;;
16642;SDS011;8435;52.184;5.406;2022-10-19T04:34:41;4.77;;;4.20;;
16642;SDS011;8435;52.184;5.406;2022-10-19T04:37:10;5.10;;;4.60;;
16642;SDS011;8435;52.184;5.406;2022-10-19T04:39:37;4.17;;;3.83;;
16642;SDS011;8435;52.184;5.406;2022-10-19T04:42:05;4.57;;;4.00;;
16642;SDS011;8435;52.184;5.406;2022-10-19T04:44:31;4.53;;;3.60;;
16642;SDS011;8435;52.184;5.406;2022-10-19T04:46:58;4.80;;;3.77;;
16642;SDS011;8435;52.184;5.406;2022-10-19T04:49:25;6.97;;;4.43;;
16642;SDS011;8435;52.184;5.406;2022-10-19T04:51:53;5.70;;;4.00;;
16642;SDS011;8435;52.184;5.406;2022-10-19T04:54:20;4.33;;;3.93;;
16642;SDS011;8435;52.184;5.406;2022-10-19T04:56:47;4.67;;;3.87;;
16642;SDS011;8435;52.184;5.406;2022-10-19T04:59:14;4.40;;;4.00;;
16642;SDS011;8435;52.184;5.406;2022-10-19T05:01:40;4.63;;;4.23;;
16642;SDS011;8435;52.184;5.406;2022-10-19T05:04:08;4.10;;;3.80;;
16642;SDS011;8435;52.184;5.406;2022-10-19T05:06:35;4.60;;;4.23;;
16642;SDS011;8435;52.184;5.406;2022-10-19T05:09:03;5.13;;;4.43;;
16642;SDS011;8435;52.184;5.406;2022-10-19T05:11:30;4.50;;;4.10;;
16642;SDS011;8435;52.184;5.406;2022-10-19T05:13:57;4.77;;;4.33;;
16642;SDS011;8435;52.184;5.406;2022-10-19T05:16:24;5.67;;;4.03;;
16642;SDS011;8435;52.184;5.406;2022-10-19T05:18:52;4.23;;;3.87;;
16642;SDS011;8435;52.184;5.406;2022-10-19T05:21:22;4.53;;;4.13;;
16642;SDS011;8435;52.184;5.406;2022-10-19T05:23:51;4.37;;;3.97;;
16642;SDS011;8435;52.184;5.406;2022-10-19T05:26:21;4.60;;;4.20;;
16642;SDS011;8435;52.184;5.406;2022-10-19T05:28:49;4.53;;;4.13;;
16642;SDS011;8435;52.184;5.406;2022-10-19T05:31:20;4.97;;;4.10;;
16642;SDS011;8435;52.184;5.406;2022-10-19T05:33:48;4.03;;;3.63;;
16642;SDS011;8435;52.184;5.406;2022-10-19T05:36:15;3.57;;;3.27;;
16642;SDS011;8435;52.184;5.406;2022-10-19T05:38:44;3.87;;;3.57;;
16642;SDS011;8435;52.184;5.406;2022-10-19T05:41:12;5.40;;;4.40;;
16642;SDS011;8435;52.184;5.406;2022-10-19T05:43:41;4.90;;;4.00;;
16642;SDS011;8435;52.184;5.406;2022-10-19T05:46:09;4.40;;;4.10;;
16642;SDS011;8435;52.184;5.406;2022-10-19T05:48:37;4.67;;;3.97;;
16642;SDS011;8435;52.184;5.406;2022-10-19T05:51:05;4.43;;;3.90;;
16642;SDS011;8435;52.184;5.406;2022-10-19T05:53:32;5.13;;;3.80;;
16642;SDS011;8435;52.184;5.406;2022-10-19T05:56:03;5.73;;;4.30;;
16642;SDS011;8435;52.184;5.406;2022-10-19T05:58:33;5.40;;;4.23;;
16642;SDS011;8435;52.184;5.406;2022-10-19T06:01:01;6.60;;;4.23;;
16642;SDS011;8435;52.184;5.406;2022-10-19T06:03:28;5.30;;;4.20;;
16642;SDS011;8435;52.184;5.406;2022-10-19T06:05:55;4.90;;;3.83;;
16642;SDS011;8435;52.184;5.406;2022-10-19T06:08:22;4.67;;;4.20;;
16642;SDS011;8435;52.184;5.406;2022-10-19T06:10:49;4.20;;;3.90;;
16642;SDS011;8435;52.184;5.406;2022-10-19T06:13:17;4.40;;;4.00;;
16642;SDS011;8435;52.184;5.406;2022-10-19T06:15:48;4.50;;;4.10;;
16642;SDS011;8435;52.184;5.406;2022-10-19T06:18:17;8.07;;;4.00;;
16642;SDS011;8435;52.184;5.406;2022-10-19T06:20:43;4.30;;;3.90;;
16642;SDS011;8435;52.184;5.406;2022-10-19T06:23:10;8.67;;;4.47;;
16642;SDS011;8435;52.184;5.406;2022-10-19T06:25:37;4.93;;;4.03;;
16642;SDS011;8435;52.184;5.406;2022-10-19T06:28:05;3.97;;;3.67;;
16642;SDS011;8435;52.184;5.406;2022-10-19T06:30:32;4.23;;;3.83;;
16642;SDS011;8435;52.184;5.406;2022-10-19T06:32:59;4.33;;;3.60;;
16642;SDS011;8435;52.184;5.406;2022-10-19T06:35:27;5.83;;;3.77;;
16642;SDS011;8435;52.184;5.406;2022-10-19T06:37:54;3.17;;;2.90;;
16642;SDS011;8435;52.184;5.406;2022-10-19T06:40:21;4.73;;;3.60;;
16642;SDS011;8435;52.184;5.406;2022-10-19T06:42:48;4.63;;;3.60;;
16642;SDS011;8435;52.184;5.406;2022-10-19T06:45:15;4.60;;;3.30;;
16642;SDS011;8435;52.184;5.406;2022-10-19T06:47:42;4.17;;;3.10;;
16642;SDS011;8435;52.184;5.406;2022-10-19T06:50:09;5.20;;;3.27;;
16642;SDS011;8435;52.184;5.406;2022-10-19T06:52:39;3.37;;;2.60;;
16642;SDS011;8435;52.184;5.406;2022-10-19T06:55:09;4.47;;;3.27;;
16642;SDS011;8435;52.184;5.406;2022-10-19T06:57:35;3.97;;;2.90;;
16642;SDS011;8435;52.184;5.406;2022-10-19T07:00:02;4.80;;;2.90;;
16642;SDS011;8435;52.184;5.406;2022-10-19T07:02:30;7.80;;;2.80;;
16642;SDS011;8435;52.184;5.406;2022-10-19T07:04:57;3.27;;;2.60;;
16642;SDS011;8435;52.184;5.406;2022-10-19T07:07:24;5.40;;;2.77;;
16642;SDS011;8435;52.184;5.406;2022-10-19T07:09:52;3.37;;;2.50;;
16642;SDS011;8435;52.184;5.406;2022-10-19T07:12:19;3.80;;;2.33;;
16642;SDS011;8435;52.184;5.406;2022-10-19T07:14:46;4.53;;;2.20;;
16642;SDS011;8435;52.184;5.406;2022-10-19T07:17:12;4.13;;;2.67;;
16642;SDS011;8435;52.184;5.406;2022-10-19T07:19:39;3.73;;;2.13;;
16642;SDS011;8435;52.184;5.406;2022-10-19T07:22:06;3.17;;;2.20;;
16642;SDS011;8435;52.184;5.406;2022-10-19T07:24:46;3.83;;;2.30;;
16642;SDS011;8435;52.184;5.406;2022-10-19T07:27:14;6.47;;;2.30;;
16642;SDS011;8435;52.184;5.406;2022-10-19T07:29:41;3.17;;;2.20;;
16642;SDS011;8435;52.184;5.406;2022-10-19T07:32:11;3.33;;;2.13;;
16642;SDS011;8435;52.184;5.406;2022-10-19T07:34:38;1.87;;;1.77;;
16642;SDS011;8435;52.184;5.406;2022-10-19T07:37:06;5.07;;;2.30;;
16642;SDS011;8435;52.184;5.406;2022-10-19T07:39:33;2.33;;;2.13;;
16642;SDS011;8435;52.184;5.406;2022-10-19T07:42:00;3.50;;;2.10;;
16642;SDS011;8435;52.184;5.406;2022-10-19T07:44:28;5.90;;;2.50;;
16642;SDS011;8435;52.184;5.406;2022-10-19T07:46:55;4.03;;;2.43;;
16642;SDS011;8435;52.184;5.406;2022-10-19T07:49:22;2.83;;;2.03;;
16642;SDS011;8435;52.184;5.406;2022-10-19T07:51:49;3.67;;;2.10;;
16642;SDS011;8435;52.184;5.406;2022-10-19T07:54:18;3.27;;;2.30;;
16642;SDS011;8435;52.184;5.406;2022-10-19T07:56:45;5.30;;;2.30;;
16642;SDS011;8435;52.184;5.406;2022-10-19T07:59:12;3.57;;;2.20;;
16642;SDS011;8435;52.184;5.406;2022-10-19T08:01:41;7.37;;;2.30;;
16642;SDS011;8435;52.184;5.406;2022-10-19T08:04:09;3.53;;;2.10;;
16642;SDS011;8435;52.184;5.406;2022-10-19T08:06:35;2.13;;;1.90;;
16642;SDS011;8435;52.184;5.406;2022-10-19T08:09:03;5.80;;;2.70;;
16642;SDS011;8435;52.184;5.406;2022-10-19T08:11:31;5.50;;;4.70;;
16642;SDS011;8435;52.184;5.406;2022-10-19T08:13:59;4.53;;;3.60;;
16642;SDS011;8435;52.184;5.406;2022-10-19T08:16:27;5.83;;;3.40;;
16642;SDS011;8435;52.184;5.406;2022-10-19T08:18:59;6.87;;;3.47;;
16642;SDS011;8435;52.184;5.406;2022-10-19T08:21:27;5.40;;;3.20;;
16642;SDS011;8435;52.184;5.406;2022-10-19T08:23:55;5.40;;;3.07;;
16642;SDS011;8435;52.184;5.406;2022-10-19T08:26:22;5.57;;;2.33;;
16642;SDS011;8435;52.184;5.406;2022-10-19T08:28:49;4.57;;;2.60;;
16642;SDS011;8435;52.184;5.406;2022-10-19T08:31:16;3.47;;;2.20;;
16642;SDS011;8435;52.184;5.406;2022-10-19T08:33:44;5.53;;;2.20;;
16642;SDS011;8435;52.184;5.406;2022-10-19T08:36:14;2.87;;;2.03;;
16642;SDS011;8435;52.184;5.406;2022-10-19T08:38:43;2.90;;;1.90;;
16642;SDS011;8435;52.184;5.406;2022-10-19T08:44:06;5.03;;;2.00;;
16642;SDS011;8435;52.184;5.406;2022-10-19T08:46:43;2.90;;;1.70;;
16642;SDS011;8435;52.184;5.406;2022-10-19T08:49:17;3.20;;;1.80;;
16642;SDS011;8435;52.184;5.406;2022-10-19T08:51:48;2.97;;;2.10;;
16642;SDS011;8435;52.184;5.406;2022-10-19T08:54:18;2.37;;;1.70;;
16642;SDS011;8435;52.184;5.406;2022-10-19T08:56:46;5.57;;;2.13;;
16642;SDS011;8435;52.184;5.406;2022-10-19T08:59:29;4.27;;;2.03;;
16642;SDS011;8435;52.184;5.406;2022-10-19T09:02:09;2.57;;;2.00;;
16642;SDS011;8435;52.184;5.406;2022-10-19T09:04:43;2.23;;;1.80;;
16642;SDS011;8435;52.184;5.406;2022-10-19T09:10:10;4.73;;;2.07;;
16642;SDS011;8435;52.184;5.406;2022-10-19T09:12:44;4.53;;;2.10;;
16642;SDS011;8435;52.184;5.406;2022-10-19T09:15:16;3.50;;;1.90;;
16642;SDS011;8435;52.184;5.406;2022-10-19T09:17:47;4.13;;;2.20;;
16642;SDS011;8435;52.184;5.406;2022-10-19T09:20:15;5.07;;;2.30;;
16642;SDS011;8435;52.184;5.406;2022-10-19T09:22:45;3.50;;;2.10;;
16642;SDS011;8435;52.184;5.406;2022-10-19T09:25:17;3.47;;;2.40;;
16642;SDS011;8435;52.184;5.406;2022-10-19T09:27:46;3.87;;;2.50;;
16642;SDS011;8435;52.184;5.406;2022-10-19T09:30:16;4.60;;;2.27;;
16642;SDS011;8435;52.184;5.406;2022-10-19T09:32:44;4.63;;;2.63;;
16642;SDS011;8435;52.184;5.406;2022-10-19T09:35:20;4.00;;;2.30;;
16642;SDS011;8435;52.184;5.406;2022-10-19T09:37:53;6.57;;;2.33;;
16642;SDS011;8435;52.184;5.406;2022-10-19T09:40:24;3.50;;;2.30;;
16642;SDS011;8435;52.184;5.406;2022-10-19T09:42:55;3.70;;;2.33;;
16642;SDS011;8435;52.184;5.406;2022-10-19T09:45:27;5.90;;;2.37;;
16642;SDS011;8435;52.184;5.406;2022-10-19T09:47:59;5.23;;;2.00;;
16642;SDS011;8435;52.184;5.406;2022-10-19T09:50:28;3.83;;;2.27;;
16642;SDS011;8435;52.184;5.406;2022-10-19T09:52:57;3.70;;;2.03;;
16642;SDS011;8435;52.184;5.406;2022-10-19T09:55:28;4.67;;;2.33;;
16642;SDS011;8435;52.184;5.406;2022-10-19T09:58:03;4.77;;;3.43;;
16642;SDS011;8435;52.184;5.406;2022-10-19T10:00:40;8.23;;;2.93;;
16642;SDS011;8435;52.184;5.406;2022-10-19T10:03:12;6.00;;;3.33;;
16642;SDS011;8435;52.184;5.406;2022-10-19T10:05:50;6.27;;;2.80;;
16642;SDS011;8435;52.184;5.406;2022-10-19T10:08:20;4.20;;;1.87;;
16642;SDS011;8435;52.184;5.406;2022-10-19T10:10:52;5.53;;;1.93;;
16642;SDS011;8435;52.184;5.406;2022-10-19T10:13:22;5.73;;;1.90;;
16642;SDS011;8435;52.184;5.406;2022-10-19T10:15:53;4.10;;;1.80;;
16642;SDS011;8435;52.184;5.406;2022-10-19T10:18:22;5.37;;;2.00;;
16642;SDS011;8435;52.184;5.406;2022-10-19T10:20:58;3.63;;;1.77;;
16642;SDS011;8435;52.184;5.406;2022-10-19T10:23:28;3.47;;;1.60;;
16642;SDS011;8435;52.184;5.406;2022-10-19T10:26:00;2.87;;;1.37;;
16642;SDS011;8435;52.184;5.406;2022-10-19T10:28:29;4.23;;;1.73;;
16642;SDS011;8435;52.184;5.406;2022-10-19T10:30:58;3.63;;;1.63;;
16642;SDS011;8435;52.184;5.406;2022-10-19T10:33:28;2.17;;;1.43;;
16642;SDS011;8435;52.184;5.406;2022-10-19T10:36:00;2.10;;;1.13;;
16642;SDS011;8435;52.184;5.406;2022-10-19T10:38:32;2.37;;;1.30;;
16642;SDS011;8435;52.184;5.406;2022-10-19T10:41:02;2.77;;;1.30;;
16642;SDS011;8435;52.184;5.406;2022-10-19T10:43:32;3.43;;;1.50;;
16642;SDS011;8435;52.184;5.406;2022-10-19T10:46:02;2.20;;;1.20;;
16642;SDS011;8435;52.184;5.406;2022-10-19T10:48:32;3.40;;;1.03;;
16642;SDS011;8435;52.184;5.406;2022-10-19T10:51:04;2.50;;;1.30;;
16642;SDS011;8435;52.184;5.406;2022-10-19T10:53:44;1.37;;;1.00;;
16642;SDS011;8435;52.184;5.406;2022-10-19T10:56:22;3.47;;;1.40;;
16642;SDS011;8435;52.184;5.406;2022-10-19T10:58:52;2.97;;;1.40;;
16642;SDS011;8435;52.184;5.406;2022-10-19T11:01:25;3.70;;;1.27;;
16642;SDS011;8435;52.184;5.406;2022-10-19T11:03:57;5.30;;;1.10;;
16642;SDS011;8435;52.184;5.406;2022-10-19T11:06:28;3.27;;;1.50;;
16642;SDS011;8435;52.184;5.406;2022-10-19T11:09:03;2.73;;;1.20;;
16642;SDS011;8435;52.184;5.406;2022-10-19T11:11:35;3.40;;;1.30;;
16642;SDS011;8435;52.184;5.406;2022-10-19T11:14:13;3.77;;;1.20;;
16642;SDS011;8435;52.184;5.406;2022-10-19T11:16:48;5.00;;;2.00;;
16642;SDS011;8435;52.184;5.406;2022-10-19T11:19:18;4.77;;;1.27;;
16642;SDS011;8435;52.184;5.406;2022-10-19T11:21:49;5.27;;;1.43;;
16642;SDS011;8435;52.184;5.406;2022-10-19T11:24:25;2.77;;;1.10;;
16642;SDS011;8435;52.184;5.406;2022-10-19T11:27:14;2.17;;;1.23;;
16642;SDS011;8435;52.184;5.406;2022-10-19T11:29:56;2.20;;;1.10;;
16642;SDS011;8435;52.184;5.406;2022-10-19T11:32:33;3.37;;;1.10;;
16642;SDS011;8435;52.184;5.406;2022-10-19T11:35:20;2.80;;;1.10;;
16642;SDS011;8435;52.184;5.406;2022-10-19T11:37:58;1.70;;;1.17;;
16642;SDS011;8435;52.184;5.406;2022-10-19T11:40:36;2.00;;;1.20;;
16642;SDS011;8435;52.184;5.406;2022-10-19T11:43:08;1.63;;;0.80;;
16642;SDS011;8435;52.184;5.406;2022-10-19T11:45:45;2.80;;;0.90;;
16642;SDS011;8435;52.184;5.406;2022-10-19T11:48:23;2.13;;;1.00;;
16642;SDS011;8435;52.184;5.406;2022-10-19T11:50:58;3.53;;;1.17;;
16642;SDS011;8435;52.184;5.406;2022-10-19T11:53:33;3.23;;;1.40;;
16642;SDS011;8435;52.184;5.406;2022-10-19T11:56:14;3.37;;;1.20;;
16642;SDS011;8435;52.184;5.406;2022-10-19T11:58:52;2.60;;;1.13;;
16642;SDS011;8435;52.184;5.406;2022-10-19T12:01:29;2.47;;;1.20;;
16642;SDS011;8435;52.184;5.406;2022-10-19T12:07:06;2.93;;;1.23;;
16642;SDS011;8435;52.184;5.406;2022-10-19T12:09:42;2.27;;;1.37;;
16642;SDS011;8435;52.184;5.406;2022-10-19T12:12:20;4.17;;;1.50;;
16642;SDS011;8435;52.184;5.406;2022-10-19T12:14:52;4.17;;;1.60;;
16642;SDS011;8435;52.184;5.406;2022-10-19T12:17:23;2.77;;;1.40;;
16642;SDS011;8435;52.184;5.406;2022-10-19T12:19:55;6.27;;;1.30;;
16642;SDS011;8435;52.184;5.406;2022-10-19T12:22:27;3.37;;;1.20;;
16642;SDS011;8435;52.184;5.406;2022-10-19T12:24:56;1.63;;;1.20;;
16642;SDS011;8435;52.184;5.406;2022-10-19T12:27:28;3.43;;;1.30;;
16642;SDS011;8435;52.184;5.406;2022-10-19T12:29:57;2.23;;;1.20;;
16642;SDS011;8435;52.184;5.406;2022-10-19T12:32:29;2.37;;;1.43;;
16642;SDS011;8435;52.184;5.406;2022-10-19T12:35:14;1.63;;;1.40;;
16642;SDS011;8435;52.184;5.406;2022-10-19T12:37:51;4.00;;;1.53;;
16642;SDS011;8435;52.184;5.406;2022-10-19T12:40:22;3.90;;;1.53;;
16642;SDS011;8435;52.184;5.406;2022-10-19T12:43:00;3.10;;;1.50;;
16642;SDS011;8435;52.184;5.406;2022-10-19T12:45:34;4.17;;;1.83;;
16642;SDS011;8435;52.184;5.406;2022-10-19T12:48:14;2.53;;;1.40;;
16642;SDS011;8435;52.184;5.406;2022-10-19T12:51:01;2.57;;;1.50;;
16642;SDS011;8435;52.184;5.406;2022-10-19T12:53:39;3.37;;;1.40;;
16642;SDS011;8435;52.184;5.406;2022-10-19T12:56:10;3.97;;;1.73;;
16642;SDS011;8435;52.184;5.406;2022-10-19T12:58:46;2.63;;;1.53;;
16642;SDS011;8435;52.184;5.406;2022-10-19T13:01:17;3.33;;;1.57;;
16642;SDS011;8435;52.184;5.406;2022-10-19T13:03:47;3.60;;;1.70;;
16642;SDS011;8435;52.184;5.406;2022-10-19T13:06:29;4.73;;;1.60;;
16642;SDS011;8435;52.184;5.406;2022-10-19T13:08:58;4.47;;;1.97;;
16642;SDS011;8435;52.184;5.406;2022-10-19T13:11:28;5.27;;;1.50;;
16642;SDS011;8435;52.184;5.406;2022-10-19T13:13:57;4.70;;;1.50;;
16642;SDS011;8435;52.184;5.406;2022-10-19T13:16:37;2.33;;;1.70;;
16642;SDS011;8435;52.184;5.406;2022-10-19T13:19:17;5.57;;;1.50;;
16642;SDS011;8435;52.184;5.406;2022-10-19T13:21:48;2.87;;;1.70;;
16642;SDS011;8435;52.184;5.406;2022-10-19T13:27:47;5.23;;;2.23;;
16642;SDS011;8435;52.184;5.406;2022-10-19T13:33:40;4.30;;;1.90;;
16642;SDS011;8435;52.184;5.406;2022-10-19T13:36:10;4.60;;;2.87;;
16642;SDS011;8435;52.184;5.406;2022-10-19T13:38:38;4.33;;;2.13;;
16642;SDS011;8435;52.184;5.406;2022-10-19T13:41:08;6.33;;;3.53;;
16642;SDS011;8435;52.184;5.406;2022-10-19T13:43:39;3.23;;;2.20;;
16642;SDS011;8435;52.184;5.406;2022-10-19T13:46:18;4.83;;;2.20;;
16642;SDS011;8435;52.184;5.406;2022-10-19T13:48:58;2.80;;;2.03;;
16642;SDS011;8435;52.184;5.406;2022-10-19T13:51:35;4.60;;;2.10;;
16642;SDS011;8435;52.184;5.406;2022-10-19T13:54:16;4.27;;;2.10;;
16642;SDS011;8435;52.184;5.406;2022-10-19T13:56:57;3.53;;;2.00;;
16642;SDS011;8435;52.184;5.406;2022-10-19T13:59:42;4.53;;;1.90;;
16642;SDS011;8435;52.184;5.406;2022-10-19T14:05:58;3.40;;;1.80;;
16642;SDS011;8435;52.184;5.406;2022-10-19T14:08:46;3.33;;;1.60;;
16642;SDS011;8435;52.184;5.406;2022-10-19T14:11:30;2.40;;;1.83;;
16642;SDS011;8435;52.184;5.406;2022-10-19T14:14:06;3.33;;;1.77;;
16642;SDS011;8435;52.184;5.406;2022-10-19T14:16:44;2.90;;;1.60;;
16642;SDS011;8435;52.184;5.406;2022-10-19T14:19:20;3.10;;;1.67;;
16642;SDS011;8435;52.184;5.406;2022-10-19T14:21:51;3.23;;;1.70;;
16642;SDS011;8435;52.184;5.406;2022-10-19T14:24:22;3.37;;;1.60;;
16642;SDS011;8435;52.184;5.406;2022-10-19T14:26:54;4.17;;;1.47;;
16642;SDS011;8435;52.184;5.406;2022-10-19T14:29:21;4.60;;;2.10;;
16642;SDS011;8435;52.184;5.406;2022-10-19T14:31:48;3.63;;;1.53;;
16642;SDS011;8435;52.184;5.406;2022-10-19T14:34:16;3.97;;;1.30;;
16642;SDS011;8435;52.184;5.406;2022-10-19T14:36:45;2.43;;;1.23;;
16642;SDS011;8435;52.184;5.406;2022-10-19T14:39:24;3.53;;;1.53;;
16642;SDS011;8435;52.184;5.406;2022-10-19T14:41:55;2.50;;;1.30;;
16642;SDS011;8435;52.184;5.406;2022-10-19T14:44:35;3.80;;;1.83;;
16642;SDS011;8435;52.184;5.406;2022-10-19T14:47:15;1.97;;;1.33;;
16642;SDS011;8435;52.184;5.406;2022-10-19T14:49:44;3.40;;;1.57;;
16642;SDS011;8435;52.184;5.406;2022-10-19T14:52:13;4.77;;;1.63;;
16642;SDS011;8435;52.184;5.406;2022-10-19T14:54:45;3.47;;;1.60;;
16642;SDS011;8435;52.184;5.406;2022-10-19T14:57:16;2.07;;;1.40;;
16642;SDS011;8435;52.184;5.406;2022-10-19T14:59:48;4.63;;;1.60;;
16642;SDS011;8435;52.184;5.406;2022-10-19T15:02:17;4.20;;;1.27;;
16642;SDS011;8435;52.184;5.406;2022-10-19T15:04:48;2.57;;;1.10;;
16642;SDS011;8435;52.184;5.406;2022-10-19T15:07:17;1.93;;;1.30;;
16642;SDS011;8435;52.184;5.406;2022-10-19T15:09:48;4.60;;;1.50;;
16642;SDS011;8435;52.184;5.406;2022-10-19T15:12:20;4.17;;;1.70;;
16642;SDS011;8435;52.184;5.406;2022-10-19T15:14:50;1.87;;;1.37;;
16642;SDS011;8435;52.184;5.406;2022-10-19T15:17:20;4.43;;;1.83;;
16642;SDS011;8435;52.184;5.406;2022-10-19T15:19:51;3.43;;;1.73;;
16642;SDS011;8435;52.184;5.406;2022-10-19T15:22:21;3.80;;;2.00;;
16642;SDS011;8435;52.184;5.406;2022-10-19T15:25:17;5.13;;;3.03;;
16642;SDS011;8435;52.184;5.406;2022-10-19T15:27:57;3.27;;;2.00;;
16642;SDS011;8435;52.184;5.406;2022-10-19T15:30:43;2.10;;;1.50;;
16642;SDS011;8435;52.184;5.406;2022-10-19T15:33:12;4.77;;;1.50;;
16642;SDS011;8435;52.184;5.406;2022-10-19T15:35:41;4.70;;;1.80;;
16642;SDS011;8435;52.184;5.406;2022-10-19T15:38:15;3.00;;;1.33;;
16642;SDS011;8435;52.184;5.406;2022-10-19T15:40:45;2.80;;;1.30;;
16642;SDS011;8435;52.184;5.406;2022-10-19T15:43:23;3.47;;;1.20;;